sensor_id;sensor_type;location;lat;lon;timestamp;temperature;humidity
13616;DHT22;6879;51.368;6.782;2022-11-02T00:00:41;13.30;97.00
13616;DHT22;6879;51.368;6.782;2022-11-02T00:03:14;13.40;97.00
13616;DHT22;6879;51.368;6.782;2022-11-02T00:05:49;13.40;97.10
13616;DHT22;6879;51.368;6.782;2022-11-02T00:08:18;13.40;97.00
13616;DHT22;6879;51.368;6.782;2022-11-02T00:10:47;13.40;97.90
13616;DHT22;6879;51.368;6.782;2022-11-02T00:13:20;13.20;99.80
13616;DHT22;6879;51.368;6.782;2022-11-02T00:15:50;13.00;99.90
13616;DHT22;6879;51.368;6.782;2022-11-02T00:18:21;12.90;99.90
13616;DHT22;6879;51.368;6.782;2022-11-02T00:21:00;12.90;99.90
13616;DHT22;6879;51.368;6.782;2022-11-02T00:23:33;12.90;99.90
13616;DHT22;6879;51.368;6.782;2022-11-02T00:26:11;12.90;99.90
13616;DHT22;6879;51.368;6.782;2022-11-02T00:28:43;12.90;99.90
13616;DHT22;6879;51.368;6.782;2022-11-02T00:31:15;13.00;99.90
13616;DHT22;6879;51.368;6.782;2022-11-02T00:33:52;13.00;99.90
13616;DHT22;6879;51.368;6.782;2022-11-02T00:36:29;13.10;99.80
13616;DHT22;6879;51.368;6.782;2022-11-02T00:39:05;13.10;99.80
13616;DHT22;6879;51.368;6.782;2022-11-02T00:41:38;13.20;99.70
13616;DHT22;6879;51.368;6.782;2022-11-02T00:44:10;13.30;99.50
13616;DHT22;6879;51.368;6.782;2022-11-02T00:46:40;13.40;99.20
13616;DHT22;6879;51.368;6.782;2022-11-02T00:49:16;13.50;99.10
13616;DHT22;6879;51.368;6.782;2022-11-02T00:51:45;13.60;98.60
13616;DHT22;6879;51.368;6.782;2022-11-02T00:54:17;13.70;98.40
13616;DHT22;6879;51.368;6.782;2022-11-02T00:56:58;13.80;97.80
13616;DHT22;6879;51.368;6.782;2022-11-02T00:59:28;13.90;97.50
13616;DHT22;6879;51.368;6.782;2022-11-02T01:01:57;13.90;97.40
13616;DHT22;6879;51.368;6.782;2022-11-02T01:04:33;14.00;97.30
13616;DHT22;6879;51.368;6.782;2022-11-02T01:07:06;14.00;97.00
13616;DHT22;6879;51.368;6.782;2022-11-02T01:09:47;14.10;96.80
13616;DHT22;6879;51.368;6.782;2022-11-02T01:12:17;14.10;96.80
13616;DHT22;6879;51.368;6.782;2022-11-02T01:15:15;14.00;96.90
13616;DHT22;6879;51.368;6.782;2022-11-02T01:17:44;14.00;97.00
13616;DHT22;6879;51.368;6.782;2022-11-02T01:20:32;14.00;97.00
13616;DHT22;6879;51.368;6.782;2022-11-02T01:23:10;14.00;96.80
13616;DHT22;6879;51.368;6.782;2022-11-02T01:25:47;14.00;96.80
13616;DHT22;6879;51.368;6.782;2022-11-02T01:28:33;14.00;96.60
13616;DHT22;6879;51.368;6.782;2022-11-02T01:31:06;14.10;96.40
13616;DHT22;6879;51.368;6.782;2022-11-02T01:33:43;14.10;96.30
13616;DHT22;6879;51.368;6.782;2022-11-02T01:36:23;14.10;96.50
13616;DHT22;6879;51.368;6.782;2022-11-02T01:38:58;14.00;96.50
13616;DHT22;6879;51.368;6.782;2022-11-02T01:41:28;14.00;96.50
13616;DHT22;6879;51.368;6.782;2022-11-02T01:44:03;14.10;96.50
13616;DHT22;6879;51.368;6.782;2022-11-02T01:50:47;14.30;95.80
13616;DHT22;6879;51.368;6.782;2022-11-02T01:53:38;14.40;95.80
13616;DHT22;6879;51.368;6.782;2022-11-02T01:56:19;14.40;95.80
13616;DHT22;6879;51.368;6.782;2022-11-02T01:59:38;14.40;95.80
13616;DHT22;6879;51.368;6.782;2022-11-02T02:02:21;14.20;96.20
13616;DHT22;6879;51.368;6.782;2022-11-02T02:05:09;14.20;96.40
13616;DHT22;6879;51.368;6.782;2022-11-02T02:07:53;14.10;96.70
13616;DHT22;6879;51.368;6.782;2022-11-02T02:10:32;14.00;97.00
13616;DHT22;6879;51.368;6.782;2022-11-02T02:13:37;14.00;97.10
13616;DHT22;6879;51.368;6.782;2022-11-02T02:16:17;13.90;97.40
13616;DHT22;6879;51.368;6.782;2022-11-02T02:19:26;13.90;97.40
13616;DHT22;6879;51.368;6.782;2022-11-02T02:25:32;13.90;97.50
13616;DHT22;6879;51.368;6.782;2022-11-02T02:28:21;13.90;97.40
13616;DHT22;6879;51.368;6.782;2022-11-02T02:30:56;13.80;97.40
13616;DHT22;6879;51.368;6.782;2022-11-02T02:33:33;13.90;97.40
13616;DHT22;6879;51.368;6.782;2022-11-02T02:36:23;14.00;97.10
13616;DHT22;6879;51.368;6.782;2022-11-02T02:39:05;14.10;97.00
13616;DHT22;6879;51.368;6.782;2022-11-02T02:41:55;14.10;96.90
13616;DHT22;6879;51.368;6.782;2022-11-02T02:45:06;14.10;96.80
13616;DHT22;6879;51.368;6.782;2022-11-02T02:47:53;14.20;96.80
13616;DHT22;6879;51.368;6.782;2022-11-02T02:50:31;14.20;96.70
13616;DHT22;6879;51.368;6.782;2022-11-02T02:53:05;14.20;96.50
13616;DHT22;6879;51.368;6.782;2022-11-02T02:55:41;14.20;96.40
13616;DHT22;6879;51.368;6.782;2022-11-02T02:58:23;14.20;96.40
13616;DHT22;6879;51.368;6.782;2022-11-02T03:01:04;14.20;96.30
13616;DHT22;6879;51.368;6.782;2022-11-02T03:03:41;14.20;96.10
13616;DHT22;6879;51.368;6.782;2022-11-02T03:06:18;14.10;96.20
13616;DHT22;6879;51.368;6.782;2022-11-02T03:09:04;14.10;96.50
13616;DHT22;6879;51.368;6.782;2022-11-02T03:12:05;14.10;96.60
13616;DHT22;6879;51.368;6.782;2022-11-02T03:18:45;14.00;96.80
13616;DHT22;6879;51.368;6.782;2022-11-02T03:21:39;13.90;96.90
13616;DHT22;6879;51.368;6.782;2022-11-02T03:24:19;13.80;97.20
13616;DHT22;6879;51.368;6.782;2022-11-02T03:27:13;13.70;97.30
13616;DHT22;6879;51.368;6.782;2022-11-02T03:29:50;13.70;97.40
13616;DHT22;6879;51.368;6.782;2022-11-02T03:32:51;13.70;97.30
13616;DHT22;6879;51.368;6.782;2022-11-02T03:35:35;13.60;97.70
13616;DHT22;6879;51.368;6.782;2022-11-02T03:38:39;13.60;97.80
13616;DHT22;6879;51.368;6.782;2022-11-02T03:41:18;13.60;97.80
13616;DHT22;6879;51.368;6.782;2022-11-02T03:44:23;13.50;97.90
13616;DHT22;6879;51.368;6.782;2022-11-02T03:47:00;13.50;97.90
13616;DHT22;6879;51.368;6.782;2022-11-02T03:50:06;13.60;97.80
13616;DHT22;6879;51.368;6.782;2022-11-02T03:52:53;13.50;97.80
13616;DHT22;6879;51.368;6.782;2022-11-02T03:55:48;13.50;98.00
13616;DHT22;6879;51.368;6.782;2022-11-02T03:58:42;13.40;98.20
13616;DHT22;6879;51.368;6.782;2022-11-02T04:01:27;13.30;98.70
13616;DHT22;6879;51.368;6.782;2022-11-02T04:06:52;13.30;99.00
13616;DHT22;6879;51.368;6.782;2022-11-02T04:09:30;13.30;98.70
13616;DHT22;6879;51.368;6.782;2022-11-02T04:12:34;13.30;99.00
13616;DHT22;6879;51.368;6.782;2022-11-02T04:15:50;13.30;98.90
13616;DHT22;6879;51.368;6.782;2022-11-02T04:18:40;13.30;98.90
13616;DHT22;6879;51.368;6.782;2022-11-02T04:21:48;13.20;99.10
13616;DHT22;6879;51.368;6.782;2022-11-02T04:24:49;13.10;99.00
13616;DHT22;6879;51.368;6.782;2022-11-02T04:28:04;13.10;98.90
13616;DHT22;6879;51.368;6.782;2022-11-02T04:30:59;13.10;98.90
13616;DHT22;6879;51.368;6.782;2022-11-02T04:33:48;13.10;98.70
13616;DHT22;6879;51.368;6.782;2022-11-02T04:36:30;13.20;98.40
13616;DHT22;6879;51.368;6.782;2022-11-02T04:39:22;13.20;98.30
13616;DHT22;6879;51.368;6.782;2022-11-02T04:42:12;13.10;98.40
13616;DHT22;6879;51.368;6.782;2022-11-02T04:44:55;13.10;98.40
13616;DHT22;6879;51.368;6.782;2022-11-02T04:47:23;13.20;98.30
13616;DHT22;6879;51.368;6.782;2022-11-02T04:49:51;13.20;98.20
13616;DHT22;6879;51.368;6.782;2022-11-02T04:52:21;13.20;98.30
13616;DHT22;6879;51.368;6.782;2022-11-02T04:54:50;13.10;98.40
13616;DHT22;6879;51.368;6.782;2022-11-02T04:57:20;13.10;98.30
13616;DHT22;6879;51.368;6.782;2022-11-02T04:59:49;13.20;98.00
13616;DHT22;6879;51.368;6.782;2022-11-02T05:02:17;13.20;97.90
13616;DHT22;6879;51.368;6.782;2022-11-02T05:04:47;13.20;97.80
13616;DHT22;6879;51.368;6.782;2022-11-02T05:07:16;13.20;97.80
13616;DHT22;6879;51.368;6.782;2022-11-02T05:09:44;13.20;97.90
13616;DHT22;6879;51.368;6.782;2022-11-02T05:12:14;13.20;97.80
13616;DHT22;6879;51.368;6.782;2022-11-02T05:14:44;13.20;97.80
13616;DHT22;6879;51.368;6.782;2022-11-02T05:17:13;13.30;97.50
13616;DHT22;6879;51.368;6.782;2022-11-02T05:19:42;13.40;97.40
13616;DHT22;6879;51.368;6.782;2022-11-02T05:22:11;13.30;97.50
13616;DHT22;6879;51.368;6.782;2022-11-02T05:24:40;13.40;97.40
13616;DHT22;6879;51.368;6.782;2022-11-02T05:27:10;13.30;97.50
13616;DHT22;6879;51.368;6.782;2022-11-02T05:29:38;13.30;97.30
13616;DHT22;6879;51.368;6.782;2022-11-02T05:32:08;13.30;97.50
13616;DHT22;6879;51.368;6.782;2022-11-02T05:34:38;13.20;97.80
13616;DHT22;6879;51.368;6.782;2022-11-02T05:37:07;13.20;97.80
13616;DHT22;6879;51.368;6.782;2022-11-02T05:39:36;13.20;97.80
13616;DHT22;6879;51.368;6.782;2022-11-02T05:42:05;13.10;97.90
13616;DHT22;6879;51.368;6.782;2022-11-02T05:44:33;13.10;97.90
13616;DHT22;6879;51.368;6.782;2022-11-02T05:47:03;13.00;98.00
13616;DHT22;6879;51.368;6.782;2022-11-02T05:49:34;13.00;98.10
13616;DHT22;6879;51.368;6.782;2022-11-02T05:52:06;13.00;97.90
13616;DHT22;6879;51.368;6.782;2022-11-02T05:54:40;12.90;98.00
13616;DHT22;6879;51.368;6.782;2022-11-02T06:05:31;12.60;98.70
13616;DHT22;6879;51.368;6.782;2022-11-02T06:15:52;12.50;99.10
13616;DHT22;6879;51.368;6.782;2022-11-02T06:27:22;12.30;99.70
13616;DHT22;6879;51.368;6.782;2022-11-02T06:35:30;12.20;99.90
13616;DHT22;6879;51.368;6.782;2022-11-02T06:42:44;12.10;99.90
13616;DHT22;6879;51.368;6.782;2022-11-02T06:49:51;12.40;99.20
13616;DHT22;6879;51.368;6.782;2022-11-02T06:53:15;12.50;99.00
13616;DHT22;6879;51.368;6.782;2022-11-02T06:56:39;12.50;98.80
13616;DHT22;6879;51.368;6.782;2022-11-02T07:00:39;12.60;98.90
13616;DHT22;6879;51.368;6.782;2022-11-02T07:04:28;12.70;98.60
13616;DHT22;6879;51.368;6.782;2022-11-02T07:08:16;12.70;98.30
13616;DHT22;6879;51.368;6.782;2022-11-02T07:14:52;12.70;98.40
13616;DHT22;6879;51.368;6.782;2022-11-02T07:17:59;12.70;98.30
13616;DHT22;6879;51.368;6.782;2022-11-02T07:21:37;12.80;98.10
13616;DHT22;6879;51.368;6.782;2022-11-02T07:24:28;12.80;98.00
13616;DHT22;6879;51.368;6.782;2022-11-02T07:31:16;12.70;98.20
13616;DHT22;6879;51.368;6.782;2022-11-02T07:42:04;12.70;97.80
13616;DHT22;6879;51.368;6.782;2022-11-02T07:44:34;12.70;97.90
13616;DHT22;6879;51.368;6.782;2022-11-02T07:48:06;12.70;98.00
13616;DHT22;6879;51.368;6.782;2022-11-02T07:51:36;12.60;97.90
13616;DHT22;6879;51.368;6.782;2022-11-02T07:54:48;12.60;97.90
13616;DHT22;6879;51.368;6.782;2022-11-02T08:00:17;12.70;97.90
13616;DHT22;6879;51.368;6.782;2022-11-02T08:03:03;12.70;97.60
13616;DHT22;6879;51.368;6.782;2022-11-02T08:22:31;13.10;96.70
13616;DHT22;6879;51.368;6.782;2022-11-02T08:33:21;13.20;96.10
13616;DHT22;6879;51.368;6.782;2022-11-02T08:35:49;13.20;96.10
13616;DHT22;6879;51.368;6.782;2022-11-02T08:38:20;13.30;96.10
13616;DHT22;6879;51.368;6.782;2022-11-02T08:40:49;13.30;96.10
13616;DHT22;6879;51.368;6.782;2022-11-02T08:43:18;13.40;95.70
13616;DHT22;6879;51.368;6.782;2022-11-02T08:45:48;13.50;95.40
13616;DHT22;6879;51.368;6.782;2022-11-02T08:48:40;13.60;95.10
13616;DHT22;6879;51.368;6.782;2022-11-02T08:51:09;13.60;95.20
13616;DHT22;6879;51.368;6.782;2022-11-02T08:53:38;13.70;95.10
13616;DHT22;6879;51.368;6.782;2022-11-02T08:56:07;13.70;95.00
13616;DHT22;6879;51.368;6.782;2022-11-02T08:58:36;13.60;94.70
13616;DHT22;6879;51.368;6.782;2022-11-02T09:01:04;13.60;95.00
13616;DHT22;6879;51.368;6.782;2022-11-02T09:03:34;13.70;94.80
13616;DHT22;6879;51.368;6.782;2022-11-02T09:06:04;13.80;94.70
13616;DHT22;6879;51.368;6.782;2022-11-02T09:08:33;13.90;94.40
13616;DHT22;6879;51.368;6.782;2022-11-02T09:11:02;14.00;94.00
13616;DHT22;6879;51.368;6.782;2022-11-02T09:13:34;14.20;94.00
13616;DHT22;6879;51.368;6.782;2022-11-02T09:16:03;14.30;93.40
13616;DHT22;6879;51.368;6.782;2022-11-02T09:18:32;14.10;93.80
13616;DHT22;6879;51.368;6.782;2022-11-02T09:21:06;14.10;93.90
13616;DHT22;6879;51.368;6.782;2022-11-02T09:23:35;14.20;94.20
13616;DHT22;6879;51.368;6.782;2022-11-02T09:26:04;14.30;93.90
13616;DHT22;6879;51.368;6.782;2022-11-02T09:28:33;14.30;93.60
13616;DHT22;6879;51.368;6.782;2022-11-02T09:31:03;14.30;93.80
13616;DHT22;6879;51.368;6.782;2022-11-02T09:33:37;14.50;93.40
13616;DHT22;6879;51.368;6.782;2022-11-02T09:36:08;14.50;92.90
13616;DHT22;6879;51.368;6.782;2022-11-02T09:38:37;14.50;92.80
13616;DHT22;6879;51.368;6.782;2022-11-02T09:41:16;14.50;92.40
13616;DHT22;6879;51.368;6.782;2022-11-02T09:43:52;14.50;92.40
13616;DHT22;6879;51.368;6.782;2022-11-02T09:46:29;14.50;92.60
13616;DHT22;6879;51.368;6.782;2022-11-02T09:49:01;14.80;92.40
13616;DHT22;6879;51.368;6.782;2022-11-02T09:51:35;14.90;91.70
13616;DHT22;6879;51.368;6.782;2022-11-02T09:54:10;14.90;91.70
13616;DHT22;6879;51.368;6.782;2022-11-02T09:56:44;14.70;91.70
13616;DHT22;6879;51.368;6.782;2022-11-02T09:59:15;14.60;91.70
13616;DHT22;6879;51.368;6.782;2022-11-02T10:02:03;14.70;91.70
13616;DHT22;6879;51.368;6.782;2022-11-02T10:07:49;15.10;91.30
13616;DHT22;6879;51.368;6.782;2022-11-02T10:10:25;15.00;90.40
13616;DHT22;6879;51.368;6.782;2022-11-02T10:13:01;14.80;90.70
13616;DHT22;6879;51.368;6.782;2022-11-02T10:15:36;15.00;90.60
13616;DHT22;6879;51.368;6.782;2022-11-02T10:18:12;15.10;90.20
13616;DHT22;6879;51.368;6.782;2022-11-02T10:20:44;15.20;89.70
13616;DHT22;6879;51.368;6.782;2022-11-02T10:23:20;15.30;89.60
13616;DHT22;6879;51.368;6.782;2022-11-02T10:25:50;15.20;88.50
13616;DHT22;6879;51.368;6.782;2022-11-02T10:28:23;15.30;88.10
13616;DHT22;6879;51.368;6.782;2022-11-02T10:30:53;15.40;87.80
13616;DHT22;6879;51.368;6.782;2022-11-02T10:33:28;15.40;87.80
13616;DHT22;6879;51.368;6.782;2022-11-02T10:36:09;15.60;87.60
13616;DHT22;6879;51.368;6.782;2022-11-02T10:38:57;15.60;85.60
13616;DHT22;6879;51.368;6.782;2022-11-02T10:41:50;15.70;85.20
13616;DHT22;6879;51.368;6.782;2022-11-02T10:44:42;15.70;84.30
13616;DHT22;6879;51.368;6.782;2022-11-02T10:47:15;15.90;84.30
13616;DHT22;6879;51.368;6.782;2022-11-02T10:49:59;16.30;82.40
13616;DHT22;6879;51.368;6.782;2022-11-02T10:52:39;16.60;81.80
13616;DHT22;6879;51.368;6.782;2022-11-02T10:55:18;17.00;82.00
13616;DHT22;6879;51.368;6.782;2022-11-02T10:57:50;16.90;81.60
13616;DHT22;6879;51.368;6.782;2022-11-02T11:00:26;16.30;82.40
13616;DHT22;6879;51.368;6.782;2022-11-02T11:03:03;16.90;82.10
13616;DHT22;6879;51.368;6.782;2022-11-02T11:05:33;17.60;80.40
13616;DHT22;6879;51.368;6.782;2022-11-02T11:08:03;18.20;79.70
13616;DHT22;6879;51.368;6.782;2022-11-02T11:10:37;18.90;78.10
13616;DHT22;6879;51.368;6.782;2022-11-02T11:13:05;19.10;76.50
13616;DHT22;6879;51.368;6.782;2022-11-02T11:16:06;18.70;77.00
13616;DHT22;6879;51.368;6.782;2022-11-02T11:18:39;19.20;77.50
13616;DHT22;6879;51.368;6.782;2022-11-02T11:21:39;19.10;75.50
13616;DHT22;6879;51.368;6.782;2022-11-02T11:24:20;19.10;76.40
13616;DHT22;6879;51.368;6.782;2022-11-02T11:27:11;18.60;76.80
13616;DHT22;6879;51.368;6.782;2022-11-02T11:29:46;18.50;77.00
13616;DHT22;6879;51.368;6.782;2022-11-02T11:32:17;18.50;77.10
13616;DHT22;6879;51.368;6.782;2022-11-02T11:34:56;18.60;77.10
13616;DHT22;6879;51.368;6.782;2022-11-02T11:37:25;19.10;76.10
13616;DHT22;6879;51.368;6.782;2022-11-02T11:39:58;19.30;75.60
13616;DHT22;6879;51.368;6.782;2022-11-02T11:42:32;19.30;75.10
13616;DHT22;6879;51.368;6.782;2022-11-02T11:45:04;19.40;74.90
13616;DHT22;6879;51.368;6.782;2022-11-02T11:47:36;19.20;75.20
13616;DHT22;6879;51.368;6.782;2022-11-02T11:50:12;19.40;74.40
13616;DHT22;6879;51.368;6.782;2022-11-02T11:53:07;19.30;74.20
13616;DHT22;6879;51.368;6.782;2022-11-02T11:55:45;19.80;74.50
13616;DHT22;6879;51.368;6.782;2022-11-02T11:58:19;20.90;73.10
13616;DHT22;6879;51.368;6.782;2022-11-02T12:01:03;21.30;71.30
13616;DHT22;6879;51.368;6.782;2022-11-02T12:03:49;20.90;71.50
13616;DHT22;6879;51.368;6.782;2022-11-02T12:06:24;20.30;72.70
13616;DHT22;6879;51.368;6.782;2022-11-02T12:09:01;20.20;72.80
13616;DHT22;6879;51.368;6.782;2022-11-02T12:11:43;20.10;73.30
13616;DHT22;6879;51.368;6.782;2022-11-02T12:14:28;19.30;74.60
13616;DHT22;6879;51.368;6.782;2022-11-02T12:17:15;19.60;74.80
13616;DHT22;6879;51.368;6.782;2022-11-02T12:20:12;18.70;75.40
13616;DHT22;6879;51.368;6.782;2022-11-02T12:22:51;18.20;77.20
13616;DHT22;6879;51.368;6.782;2022-11-02T12:25:31;17.90;78.70
13616;DHT22;6879;51.368;6.782;2022-11-02T12:28:12;18.30;77.40
13616;DHT22;6879;51.368;6.782;2022-11-02T12:30:53;18.10;77.60
13616;DHT22;6879;51.368;6.782;2022-11-02T12:33:34;19.20;76.70
13616;DHT22;6879;51.368;6.782;2022-11-02T12:36:16;19.80;75.40
13616;DHT22;6879;51.368;6.782;2022-11-02T12:38:52;21.10;73.90
13616;DHT22;6879;51.368;6.782;2022-11-02T12:41:50;21.30;72.00
13616;DHT22;6879;51.368;6.782;2022-11-02T12:44:34;21.30;72.40
13616;DHT22;6879;51.368;6.782;2022-11-02T12:47:19;21.70;71.20
13616;DHT22;6879;51.368;6.782;2022-11-02T12:49:54;20.20;73.30
13616;DHT22;6879;51.368;6.782;2022-11-02T12:52:38;20.10;74.40
13616;DHT22;6879;51.368;6.782;2022-11-02T12:55:12;19.80;74.50
13616;DHT22;6879;51.368;6.782;2022-11-02T12:57:44;18.70;76.60
13616;DHT22;6879;51.368;6.782;2022-11-02T13:00:21;17.70;78.80
13616;DHT22;6879;51.368;6.782;2022-11-02T13:02:57;17.20;80.80
13616;DHT22;6879;51.368;6.782;2022-11-02T13:05:31;17.60;81.20
13616;DHT22;6879;51.368;6.782;2022-11-02T13:08:04;18.40;78.90
13616;DHT22;6879;51.368;6.782;2022-11-02T13:10:39;18.40;78.90
13616;DHT22;6879;51.368;6.782;2022-11-02T13:13:13;18.60;77.80
13616;DHT22;6879;51.368;6.782;2022-11-02T13:15:44;18.50;78.30
13616;DHT22;6879;51.368;6.782;2022-11-02T13:18:18;19.90;76.70
13616;DHT22;6879;51.368;6.782;2022-11-02T13:20:51;21.10;73.50
13616;DHT22;6879;51.368;6.782;2022-11-02T13:23:28;21.30;73.20
13616;DHT22;6879;51.368;6.782;2022-11-02T13:26:05;21.50;72.80
13616;DHT22;6879;51.368;6.782;2022-11-02T13:28:40;21.30;72.70
13616;DHT22;6879;51.368;6.782;2022-11-02T13:31:14;21.20;72.90
13616;DHT22;6879;51.368;6.782;2022-11-02T13:33:48;20.80;73.90
13616;DHT22;6879;51.368;6.782;2022-11-02T13:36:18;21.50;73.00
13616;DHT22;6879;51.368;6.782;2022-11-02T13:38:49;22.00;71.30
13616;DHT22;6879;51.368;6.782;2022-11-02T13:41:36;22.00;71.00
13616;DHT22;6879;51.368;6.782;2022-11-02T13:44:30;22.20;71.20
13616;DHT22;6879;51.368;6.782;2022-11-02T13:47:25;22.00;71.30
13616;DHT22;6879;51.368;6.782;2022-11-02T13:50:01;20.20;74.20
13616;DHT22;6879;51.368;6.782;2022-11-02T13:52:36;18.90;77.30
13616;DHT22;6879;51.368;6.782;2022-11-02T13:55:08;18.10;79.50
13616;DHT22;6879;51.368;6.782;2022-11-02T13:57:43;17.70;80.60
13616;DHT22;6879;51.368;6.782;2022-11-02T14:00:28;17.80;81.10
13616;DHT22;6879;51.368;6.782;2022-11-02T14:03:02;18.90;79.70
13616;DHT22;6879;51.368;6.782;2022-11-02T14:05:42;19.40;77.80
13616;DHT22;6879;51.368;6.782;2022-11-02T14:08:17;18.70;78.70
13616;DHT22;6879;51.368;6.782;2022-11-02T14:11:02;17.90;80.60
13616;DHT22;6879;51.368;6.782;2022-11-02T14:16:42;17.20;82.20
13616;DHT22;6879;51.368;6.782;2022-11-02T14:19:22;17.60;81.90
13616;DHT22;6879;51.368;6.782;2022-11-02T14:22:20;19.10;78.80
13616;DHT22;6879;51.368;6.782;2022-11-02T14:24:54;20.50;75.70
13616;DHT22;6879;51.368;6.782;2022-11-02T14:27:27;21.50;73.80
13616;DHT22;6879;51.368;6.782;2022-11-02T14:29:57;21.10;72.60
13616;DHT22;6879;51.368;6.782;2022-11-02T14:32:40;20.80;73.70
13616;DHT22;6879;51.368;6.782;2022-11-02T14:35:37;20.60;73.90
13616;DHT22;6879;51.368;6.782;2022-11-02T14:41:33;20.60;74.50
13616;DHT22;6879;51.368;6.782;2022-11-02T14:44:42;20.80;73.40
13616;DHT22;6879;51.368;6.782;2022-11-02T14:47:15;20.50;73.80
13616;DHT22;6879;51.368;6.782;2022-11-02T14:49:48;20.60;74.20
13616;DHT22;6879;51.368;6.782;2022-11-02T14:52:24;20.20;74.40
13616;DHT22;6879;51.368;6.782;2022-11-02T14:54:59;19.40;76.00
13616;DHT22;6879;51.368;6.782;2022-11-02T14:57:37;18.80;77.60
13616;DHT22;6879;51.368;6.782;2022-11-02T15:00:17;18.20;78.80
13616;DHT22;6879;51.368;6.782;2022-11-02T15:02:47;17.50;80.50
13616;DHT22;6879;51.368;6.782;2022-11-02T15:05:25;17.30;81.20
13616;DHT22;6879;51.368;6.782;2022-11-02T15:07:56;16.90;82.00
13616;DHT22;6879;51.368;6.782;2022-11-02T15:10:40;16.60;82.80
13616;DHT22;6879;51.368;6.782;2022-11-02T15:13:35;16.30;83.50
13616;DHT22;6879;51.368;6.782;2022-11-02T15:16:23;16.00;84.30
13616;DHT22;6879;51.368;6.782;2022-11-02T15:18:52;15.80;85.30
13616;DHT22;6879;51.368;6.782;2022-11-02T15:21:26;15.60;86.00
13616;DHT22;6879;51.368;6.782;2022-11-02T15:24:13;15.40;86.60
13616;DHT22;6879;51.368;6.782;2022-11-02T15:26:48;15.30;87.20
13616;DHT22;6879;51.368;6.782;2022-11-02T15:29:32;15.20;87.60
13616;DHT22;6879;51.368;6.782;2022-11-02T15:32:05;15.00;87.90
13616;DHT22;6879;51.368;6.782;2022-11-02T15:34:39;14.90;88.20
13616;DHT22;6879;51.368;6.782;2022-11-02T15:37:15;14.80;88.30
13616;DHT22;6879;51.368;6.782;2022-11-02T15:39:48;14.70;88.40
13616;DHT22;6879;51.368;6.782;2022-11-02T15:42:27;14.60;88.80
13616;DHT22;6879;51.368;6.782;2022-11-02T15:45:24;14.50;88.90
13616;DHT22;6879;51.368;6.782;2022-11-02T15:48:32;14.40;89.30
13616;DHT22;6879;51.368;6.782;2022-11-02T15:51:11;14.30;89.40
13616;DHT22;6879;51.368;6.782;2022-11-02T15:54:22;14.20;89.60
13616;DHT22;6879;51.368;6.782;2022-11-02T15:57:05;14.10;89.70
13616;DHT22;6879;51.368;6.782;2022-11-02T16:00:04;14.00;89.90
13616;DHT22;6879;51.368;6.782;2022-11-02T16:13:52;13.50;91.10
13616;DHT22;6879;51.368;6.782;2022-11-02T16:16:45;13.50;91.50
13616;DHT22;6879;51.368;6.782;2022-11-02T16:19:17;13.40;91.60
13616;DHT22;6879;51.368;6.782;2022-11-02T16:21:50;13.30;92.00
13616;DHT22;6879;51.368;6.782;2022-11-02T16:24:27;13.30;92.30
13616;DHT22;6879;51.368;6.782;2022-11-02T16:26:56;13.30;92.80
13616;DHT22;6879;51.368;6.782;2022-11-02T16:29:29;13.30;92.40
13616;DHT22;6879;51.368;6.782;2022-11-02T16:31:59;13.20;92.90
13616;DHT22;6879;51.368;6.782;2022-11-02T16:34:30;13.10;93.00
13616;DHT22;6879;51.368;6.782;2022-11-02T16:37:01;13.10;93.10
13616;DHT22;6879;51.368;6.782;2022-11-02T16:39:36;12.90;93.20
13616;DHT22;6879;51.368;6.782;2022-11-02T16:42:08;12.60;94.00
13616;DHT22;6879;51.368;6.782;2022-11-02T16:44:56;12.30;95.10
13616;DHT22;6879;51.368;6.782;2022-11-02T16:47:32;12.00;95.90
13616;DHT22;6879;51.368;6.782;2022-11-02T16:50:15;11.70;96.70
13616;DHT22;6879;51.368;6.782;2022-11-02T16:52:52;11.40;97.70
13616;DHT22;6879;51.368;6.782;2022-11-02T16:55:38;11.10;98.70
13616;DHT22;6879;51.368;6.782;2022-11-02T16:58:14;11.00;99.30
13616;DHT22;6879;51.368;6.782;2022-11-02T17:00:59;11.00;99.70
13616;DHT22;6879;51.368;6.782;2022-11-02T17:03:31;10.90;99.90
13616;DHT22;6879;51.368;6.782;2022-11-02T17:06:02;10.90;99.90
13616;DHT22;6879;51.368;6.782;2022-11-02T17:08:33;10.90;99.90
13616;DHT22;6879;51.368;6.782;2022-11-02T17:11:04;10.80;99.90
13616;DHT22;6879;51.368;6.782;2022-11-02T17:13:36;10.70;99.90
13616;DHT22;6879;51.368;6.782;2022-11-02T17:16:08;10.70;99.90
13616;DHT22;6879;51.368;6.782;2022-11-02T17:18:37;10.70;99.90
13616;DHT22;6879;51.368;6.782;2022-11-02T17:21:36;10.70;99.90
13616;DHT22;6879;51.368;6.782;2022-11-02T17:24:28;10.70;99.90
13616;DHT22;6879;51.368;6.782;2022-11-02T17:27:16;10.80;99.80
13616;DHT22;6879;51.368;6.782;2022-11-02T17:29:45;10.90;99.40
13616;DHT22;6879;51.368;6.782;2022-11-02T17:32:15;11.10;98.80
13616;DHT22;6879;51.368;6.782;2022-11-02T17:34:48;11.20;98.20
13616;DHT22;6879;51.368;6.782;2022-11-02T17:37:25;11.20;97.90
13616;DHT22;6879;51.368;6.782;2022-11-02T17:39:55;11.30;97.40
13616;DHT22;6879;51.368;6.782;2022-11-02T17:42:27;11.40;97.10
13616;DHT22;6879;51.368;6.782;2022-11-02T17:45:24;11.40;96.70
13616;DHT22;6879;51.368;6.782;2022-11-02T17:47:56;11.50;96.30
13616;DHT22;6879;51.368;6.782;2022-11-02T17:50:26;11.60;95.80
13616;DHT22;6879;51.368;6.782;2022-11-02T17:52:56;11.80;95.20
13616;DHT22;6879;51.368;6.782;2022-11-02T17:55:26;11.80;94.70
13616;DHT22;6879;51.368;6.782;2022-11-02T17:57:56;11.90;94.10
13616;DHT22;6879;51.368;6.782;2022-11-02T18:00:26;12.10;93.50
13616;DHT22;6879;51.368;6.782;2022-11-02T18:02:57;12.10;93.00
13616;DHT22;6879;51.368;6.782;2022-11-02T18:05:27;12.10;92.70
13616;DHT22;6879;51.368;6.782;2022-11-02T18:07:57;12.20;92.60
13616;DHT22;6879;51.368;6.782;2022-11-02T18:10:27;12.20;92.20
13616;DHT22;6879;51.368;6.782;2022-11-02T18:12:57;12.30;92.00
13616;DHT22;6879;51.368;6.782;2022-11-02T18:15:27;12.40;91.60
13616;DHT22;6879;51.368;6.782;2022-11-02T18:17:57;12.40;91.40
13616;DHT22;6879;51.368;6.782;2022-11-02T18:20:27;12.40;91.30
13616;DHT22;6879;51.368;6.782;2022-11-02T18:22:57;12.30;91.40
13616;DHT22;6879;51.368;6.782;2022-11-02T18:25:28;12.20;91.60
13616;DHT22;6879;51.368;6.782;2022-11-02T18:27:58;12.20;91.80
13616;DHT22;6879;51.368;6.782;2022-11-02T18:30:28;12.20;92.00
13616;DHT22;6879;51.368;6.782;2022-11-02T18:33:00;12.20;91.80
13616;DHT22;6879;51.368;6.782;2022-11-02T18:35:29;12.10;92.50
13616;DHT22;6879;51.368;6.782;2022-11-02T18:37:57;12.10;92.40
13616;DHT22;6879;51.368;6.782;2022-11-02T18:40:26;12.10;92.70
13616;DHT22;6879;51.368;6.782;2022-11-02T18:43:01;12.10;92.70
13616;DHT22;6879;51.368;6.782;2022-11-02T18:45:30;12.10;92.90
13616;DHT22;6879;51.368;6.782;2022-11-02T18:48:00;12.10;92.60
13616;DHT22;6879;51.368;6.782;2022-11-02T18:50:29;12.00;92.90
13616;DHT22;6879;51.368;6.782;2022-11-02T18:52:58;12.00;93.20
13616;DHT22;6879;51.368;6.782;2022-11-02T18:55:27;12.00;93.00
13616;DHT22;6879;51.368;6.782;2022-11-02T18:57:55;12.00;93.00
13616;DHT22;6879;51.368;6.782;2022-11-02T19:00:24;12.00;93.20